Time,TemperatureF,DewpointF,PressureIn,WindDirection,WindDirectionDegrees,WindSpeedMPH,WindSpeedGustMPH,Humidity,HourlyPrecipIn,Conditions,Clouds,dailyrainin,SolarRadiationWatts/m^2,SoftwareType,DateUTC
2013-06-15 00:02:00,43.0,22.0,-100.00,NNE,29,4.0,11.0,43,0.00,,,0.00,0.000000,,2013-06-15 06:02:00,
2013-06-15 00:12:00,43.0,22.0,-100.00,NNE,29,4.0,11.0,43,0.00,,,0.00,0.000000,,2013-06-15 06:12:00,
2013-06-15 00:43:00,39.0,23.0,-100.00,WNW,302,4.0,8.0,52,0.00,,,0.00,0.000000,,2013-06-15 06:43:00,
2013-06-15 00:53:00,39.0,23.0,-100.00,WNW,302,4.0,8.0,52,0.00,,,0.00,0.000000,,2013-06-15 06:53:00,
2013-06-15 01:01:00,39.0,23.0,-100.00,WNW,302,4.0,8.0,52,0.00,,,0.00,0.000000,,2013-06-15 07:01:00,
2013-06-15 01:11:00,39.0,23.0,-100.00,WNW,302,4.0,8.0,52,0.00,,,0.00,0.000000,,2013-06-15 07:11:00,
2013-06-15 01:43:00,38.0,25.0,-100.00,WNW,302,4.0,5.0,58,0.00,,,0.00,0.000000,,2013-06-15 07:43:00,
2013-06-15 01:53:00,38.0,25.0,-100.00,WNW,302,4.0,5.0,58,0.00,,,0.00,0.000000,,2013-06-15 07:53:00,
2013-06-15 02:02:00,38.0,25.0,-100.00,WNW,302,4.0,5.0,58,0.00,,,0.00,0.000000,,2013-06-15 08:02:00,
2013-06-15 02:11:00,38.0,25.0,-100.00,WNW,302,4.0,5.0,58,0.00,,,0.00,0.000000,,2013-06-15 08:11:00,
2013-06-15 02:43:00,39.0,23.0,-100.00,West,260,5.0,8.0,52,0.00,,,0.00,0.000000,,2013-06-15 08:43:00,
2013-06-15 02:53:00,39.0,23.0,-100.00,West,260,5.0,8.0,52,0.00,,,0.00,0.000000,,2013-06-15 08:53:00,
2013-06-15 03:02:00,39.0,23.0,-100.00,West,260,5.0,8.0,52,0.00,,,0.00,0.000000,,2013-06-15 09:02:00,
2013-06-15 03:12:00,39.0,23.0,-100.00,West,260,5.0,8.0,52,0.00,,,0.00,0.000000,,2013-06-15 09:12:00,
2013-06-15 03:43:00,36.0,23.0,-100.00,WNW,293,4.0,8.0,58,0.00,,,0.00,0.000000,,2013-06-15 09:43:00,
2013-06-15 03:52:00,36.0,23.0,-100.00,WNW,293,4.0,8.0,58,0.00,,,0.00,0.000000,,2013-06-15 09:52:00,
2013-06-15 04:02:00,36.0,23.0,-100.00,WNW,293,4.0,8.0,58,0.00,,,0.00,0.000000,,2013-06-15 10:02:00,
2013-06-15 04:11:00,36.0,23.0,-100.00,WNW,293,4.0,8.0,58,0.00,,,0.00,0.000000,,2013-06-15 10:11:00,
2013-06-15 04:44:00,35.0,22.0,-100.00,WNW,284,5.0,9.0,59,0.00,,,0.00,0.000000,,2013-06-15 10:44:00,
2013-06-15 04:53:00,35.0,22.0,-100.00,WNW,284,5.0,9.0,59,0.00,,,0.00,0.000000,,2013-06-15 10:53:00,
2013-06-15 05:02:00,35.0,22.0,-100.00,WNW,284,5.0,9.0,59,0.00,,,0.00,0.000000,,2013-06-15 11:02:00,
2013-06-15 05:11:00,35.0,22.0,-100.00,WNW,284,5.0,9.0,59,0.00,,,0.00,0.000000,,2013-06-15 11:11:00,
2013-06-15 05:43:00,34.0,21.0,-100.00,West,279,5.0,7.0,58,0.00,,,0.00,0.000000,,2013-06-15 11:43:00,
2013-06-15 05:53:00,34.0,21.0,-100.00,West,279,5.0,7.0,58,0.00,,,0.00,0.000000,,2013-06-15 11:53:00,
2013-06-15 06:01:00,34.0,21.0,-100.00,West,279,5.0,7.0,58,0.00,,,0.00,0.000000,,2013-06-15 12:01:00,
2013-06-15 06:11:00,34.0,21.0,-100.00,West,279,5.0,7.0,58,0.00,,,0.00,0.000000,,2013-06-15 12:11:00,
2013-06-15 06:43:00,34.0,22.0,-100.00,WNW,288,5.0,7.0,60,0.00,,,0.00,9.000000,,2013-06-15 12:43:00,
2013-06-15 06:52:00,34.0,22.0,-100.00,WNW,288,5.0,7.0,60,0.00,,,0.00,9.000000,,2013-06-15 12:52:00,
2013-06-15 07:02:00,34.0,22.0,-100.00,WNW,288,5.0,7.0,60,0.00,,,0.00,9.000000,,2013-06-15 13:02:00,
2013-06-15 07:11:00,34.0,22.0,-100.00,WNW,288,5.0,7.0,60,0.00,,,0.00,9.000000,,2013-06-15 13:11:00,
2013-06-15 07:44:00,39.0,25.0,-100.00,WNW,287,4.0,7.0,58,0.00,,,0.00,89.000000,,2013-06-15 13:44:00,
2013-06-15 07:53:00,39.0,25.0,-100.00,WNW,287,4.0,7.0,58,0.00,,,0.00,89.000000,,2013-06-15 13:53:00,
2013-06-15 08:01:00,39.0,25.0,-100.00,WNW,287,4.0,7.0,58,0.00,,,0.00,89.000000,,2013-06-15 14:01:00,
2013-06-15 08:12:00,39.0,25.0,-100.00,WNW,287,4.0,7.0,58,0.00,,,0.00,89.000000,,2013-06-15 14:12:00,
2013-06-15 08:43:00,52.0,25.0,-100.00,East,98,2.0,4.0,34,0.00,,,0.00,419.000000,,2013-06-15 14:43:00,
2013-06-15 08:54:00,52.0,25.0,-100.00,East,98,2.0,4.0,34,0.00,,,0.00,419.000000,,2013-06-15 14:54:00,
2013-06-15 09:02:00,52.0,25.0,-100.00,East,98,2.0,4.0,34,0.00,,,0.00,419.000000,,2013-06-15 15:02:00,
2013-06-15 09:11:00,52.0,25.0,-100.00,East,98,2.0,4.0,34,0.00,,,0.00,419.000000,,2013-06-15 15:11:00,
2013-06-15 09:43:00,54.0,27.0,-100.00,ESE,115,7.0,10.0,35,0.00,,,0.00,640.000000,,2013-06-15 15:43:00,
2013-06-15 09:53:00,54.0,27.0,-100.00,ESE,115,7.0,10.0,35,0.00,,,0.00,640.000000,,2013-06-15 15:53:00,
2013-06-15 10:01:00,54.0,27.0,-100.00,ESE,115,7.0,10.0,35,0.00,,,0.00,640.000000,,2013-06-15 16:01:00,
2013-06-15 10:11:00,54.0,27.0,-100.00,ESE,115,7.0,10.0,35,0.00,,,0.00,640.000000,,2013-06-15 16:11:00,
2013-06-15 10:43:00,56.0,24.0,-100.00,ESE,113,8.0,13.0,29,0.00,,,0.00,836.000000,,2013-06-15 16:43:00,
2013-06-15 10:53:00,56.0,24.0,-100.00,ESE,113,8.0,13.0,29,0.00,,,0.00,836.000000,,2013-06-15 16:53:00,
2013-06-15 11:02:00,56.0,24.0,-100.00,ESE,113,8.0,13.0,29,0.00,,,0.00,836.000000,,2013-06-15 17:02:00,
2013-06-15 11:12:00,56.0,24.0,-100.00,ESE,113,8.0,13.0,29,0.00,,,0.00,836.000000,,2013-06-15 17:12:00,
2013-06-15 11:43:00,57.0,27.0,-100.00,ESE,112,12.0,16.0,31,0.00,,,0.00,995.000000,,2013-06-15 17:43:00,
2013-06-15 11:52:00,57.0,27.0,-100.00,ESE,112,12.0,16.0,31,0.00,,,0.00,995.000000,,2013-06-15 17:52:00,
2013-06-15 12:01:00,57.0,27.0,-100.00,ESE,112,12.0,16.0,31,0.00,,,0.00,995.000000,,2013-06-15 18:01:00,
2013-06-15 12:12:00,57.0,27.0,-100.00,ESE,112,12.0,16.0,31,0.00,,,0.00,995.000000,,2013-06-15 18:12:00,
2013-06-15 12:43:00,58.0,28.0,-100.00,ESE,114,11.0,18.0,31,0.00,,,0.00,1098.000000,,2013-06-15 18:43:00,
2013-06-15 12:53:00,58.0,28.0,-100.00,ESE,114,11.0,18.0,31,0.00,,,0.00,1098.000000,,2013-06-15 18:53:00,
2013-06-15 13:01:00,58.0,28.0,-100.00,ESE,114,11.0,18.0,31,0.00,,,0.00,1098.000000,,2013-06-15 19:01:00,
2013-06-15 13:11:00,58.0,28.0,-100.00,ESE,114,11.0,18.0,31,0.00,,,0.00,1098.000000,,2013-06-15 19:11:00,
2013-06-15 13:43:00,60.0,28.0,-100.00,ESE,114,11.0,18.0,30,0.00,,,0.00,1149.000000,,2013-06-15 19:43:00,
2013-06-15 13:53:00,60.0,28.0,-100.00,ESE,114,11.0,18.0,30,0.00,,,0.00,1149.000000,,2013-06-15 19:53:00,
2013-06-15 14:02:00,60.0,28.0,-100.00,ESE,114,11.0,18.0,30,0.00,,,0.00,1149.000000,,2013-06-15 20:02:00,
2013-06-15 14:11:00,60.0,28.0,-100.00,ESE,114,11.0,18.0,30,0.00,,,0.00,1149.000000,,2013-06-15 20:11:00,
2013-06-15 14:43:00,61.0,29.0,-100.00,ESE,108,12.0,19.0,30,0.00,,,0.00,1145.000000,,2013-06-15 20:43:00,
2013-06-15 14:53:00,61.0,29.0,-100.00,ESE,108,12.0,19.0,30,0.00,,,0.00,1145.000000,,2013-06-15 20:53:00,
2013-06-15 15:01:00,61.0,29.0,-100.00,ESE,108,12.0,19.0,30,0.00,,,0.00,1145.000000,,2013-06-15 21:01:00,
2013-06-15 15:11:00,61.0,29.0,-100.00,ESE,108,12.0,19.0,30,0.00,,,0.00,1145.000000,,2013-06-15 21:11:00,
2013-06-15 15:42:00,63.0,30.0,-100.00,ESE,117,12.0,20.0,29,0.00,,,0.00,1080.000000,,2013-06-15 21:42:00,
2013-06-15 15:53:00,63.0,30.0,-100.00,ESE,117,12.0,20.0,29,0.00,,,0.00,1080.000000,,2013-06-15 21:53:00,
2013-06-15 16:01:00,63.0,30.0,-100.00,ESE,117,12.0,20.0,29,0.00,,,0.00,1080.000000,,2013-06-15 22:01:00,
2013-06-15 16:11:00,63.0,30.0,-100.00,ESE,117,12.0,20.0,29,0.00,,,0.00,1080.000000,,2013-06-15 22:11:00,
2013-06-15 16:43:00,64.0,30.0,-100.00,ESE,104,11.0,20.0,28,0.00,,,0.00,964.000000,,2013-06-15 22:43:00,
2013-06-15 16:53:00,64.0,30.0,-100.00,ESE,104,11.0,20.0,28,0.00,,,0.00,964.000000,,2013-06-15 22:53:00,
2013-06-15 17:02:00,64.0,30.0,-100.00,ESE,104,11.0,20.0,28,0.00,,,0.00,964.000000,,2013-06-15 23:02:00,
2013-06-15 17:11:00,64.0,30.0,-100.00,ESE,104,11.0,20.0,28,0.00,,,0.00,964.000000,,2013-06-15 23:11:00,
2013-06-15 17:43:00,64.0,29.0,-100.00,East,95,11.0,18.0,27,0.00,,,0.00,788.000000,,2013-06-15 23:43:00,
2013-06-15 17:53:00,64.0,29.0,-100.00,East,95,11.0,18.0,27,0.00,,,0.00,788.000000,,2013-06-15 23:53:00,
2013-06-15 18:01:00,64.0,29.0,-100.00,East,95,11.0,18.0,27,0.00,,,0.00,788.000000,,2013-06-16 00:01:00,
2013-06-15 18:11:00,64.0,29.0,-100.00,East,95,11.0,18.0,27,0.00,,,0.00,788.000000,,2013-06-16 00:11:00,
2013-06-15 18:43:00,64.0,30.0,-100.00,East,87,6.0,15.0,28,0.00,,,-99.99,589.000000,,2013-06-16 00:43:00,
2013-06-15 18:52:00,64.0,30.0,-100.00,East,87,6.0,15.0,28,0.00,,,-99.99,589.000000,,2013-06-16 00:52:00,
2013-06-15 19:01:00,64.0,30.0,-100.00,East,87,6.0,15.0,28,0.00,,,-99.99,589.000000,,2013-06-16 01:01:00,
2013-06-15 19:11:00,64.0,30.0,-100.00,East,87,6.0,15.0,28,0.00,,,-99.99,589.000000,,2013-06-16 01:11:00,
2013-06-15 19:43:00,63.0,30.0,-100.00,SE,124,5.0,14.0,29,0.00,,,0.00,385.000000,,2013-06-16 01:43:00,
2013-06-15 19:53:00,63.0,30.0,-100.00,SE,124,5.0,14.0,29,0.00,,,0.00,385.000000,,2013-06-16 01:53:00,
2013-06-15 20:01:00,63.0,30.0,-100.00,SE,124,5.0,14.0,29,0.00,,,0.00,385.000000,,2013-06-16 02:01:00,
2013-06-15 20:12:00,63.0,30.0,-100.00,SE,124,5.0,14.0,29,0.00,,,0.00,385.000000,,2013-06-16 02:12:00,
2013-06-15 20:53:00,55.0,33.0,-100.00,WNW,301,4.0,9.0,44,0.00,,,0.00,100.000000,,2013-06-16 02:53:00,
2013-06-15 21:02:00,55.0,33.0,-100.00,WNW,301,4.0,9.0,44,0.00,,,0.00,100.000000,,2013-06-16 03:02:00,
2013-06-15 21:11:00,55.0,33.0,-100.00,WNW,301,4.0,9.0,44,0.00,,,0.00,100.000000,,2013-06-16 03:11:00,
2013-06-15 21:53:00,51.0,34.0,-100.00,WNW,287,5.0,9.0,52,0.00,,,0.00,12.000000,,2013-06-16 03:53:00,
2013-06-15 22:02:00,51.0,34.0,-100.00,WNW,287,5.0,9.0,52,0.00,,,0.00,12.000000,,2013-06-16 04:02:00,
2013-06-15 22:12:00,51.0,34.0,-100.00,WNW,287,5.0,9.0,52,0.00,,,0.00,12.000000,,2013-06-16 04:12:00,
2013-06-15 22:43:00,49.0,34.0,-100.00,West,280,5.0,8.0,55,0.00,,,0.00,0.000000,,2013-06-16 04:43:00,
2013-06-15 22:53:00,49.0,34.0,-100.00,West,280,5.0,8.0,55,0.00,,,0.00,0.000000,,2013-06-16 04:53:00,
2013-06-15 23:01:00,49.0,34.0,-100.00,West,280,5.0,8.0,55,0.00,,,0.00,0.000000,,2013-06-16 05:01:00,
2013-06-15 23:11:00,49.0,34.0,-100.00,West,280,5.0,8.0,55,0.00,,,0.00,0.000000,,2013-06-16 05:11:00,
2013-06-15 23:43:00,46.0,33.0,-100.00,WNW,286,4.0,7.0,61,0.00,,,0.00,0.000000,,2013-06-16 05:43:00,
2013-06-15 23:52:00,46.0,33.0,-100.00,WNW,286,4.0,7.0,61,0.00,,,0.00,0.000000,,2013-06-16 05:52:00,